sensor_id;sensor_type;location;lat;lon;timestamp;P1;durP1;ratioP1;P2;durP2;ratioP2
73132;SDS011;61320;52.008;4.530;2023-04-15T00:00:26;5.88;;;5.88;;
73132;SDS011;61320;52.008;4.530;2023-04-15T00:02:53;6.02;;;6.02;;
73132;SDS011;61320;52.008;4.530;2023-04-15T00:05:19;5.88;;;5.88;;
73132;SDS011;61320;52.008;4.530;2023-04-15T00:07:45;6.12;;;6.12;;
73132;SDS011;61320;52.008;4.530;2023-04-15T00:10:11;6.28;;;6.28;;
73132;SDS011;61320;52.008;4.530;2023-04-15T00:12:38;6.29;;;6.29;;
73132;SDS011;61320;52.008;4.530;2023-04-15T00:15:05;6.23;;;6.23;;
73132;SDS011;61320;52.008;4.530;2023-04-15T00:17:33;6.12;;;6.12;;
73132;SDS011;61320;52.008;4.530;2023-04-15T00:19:59;6.42;;;6.42;;
73132;SDS011;61320;52.008;4.530;2023-04-15T00:22:25;6.16;;;6.16;;
73132;SDS011;61320;52.008;4.530;2023-04-15T00:24:52;7.07;;;7.07;;
73132;SDS011;61320;52.008;4.530;2023-04-15T00:27:18;7.38;;;7.38;;
73132;SDS011;61320;52.008;4.530;2023-04-15T00:29:43;7.18;;;7.18;;
73132;SDS011;61320;52.008;4.530;2023-04-15T00:32:09;7.50;;;7.50;;
73132;SDS011;61320;52.008;4.530;2023-04-15T00:34:35;7.36;;;7.36;;
73132;SDS011;61320;52.008;4.530;2023-04-15T00:37:01;7.35;;;7.35;;
73132;SDS011;61320;52.008;4.530;2023-04-15T00:39:28;7.57;;;7.57;;
73132;SDS011;61320;52.008;4.530;2023-04-15T00:41:53;8.31;;;8.31;;
73132;SDS011;61320;52.008;4.530;2023-04-15T00:44:19;8.06;;;8.06;;
73132;SDS011;61320;52.008;4.530;2023-04-15T00:46:45;8.05;;;8.05;;
73132;SDS011;61320;52.008;4.530;2023-04-15T00:49:12;8.05;;;8.05;;
73132;SDS011;61320;52.008;4.530;2023-04-15T00:51:38;8.27;;;8.27;;
73132;SDS011;61320;52.008;4.530;2023-04-15T00:54:04;8.51;;;8.51;;
73132;SDS011;61320;52.008;4.530;2023-04-15T00:56:33;8.40;;;8.40;;
73132;SDS011;61320;52.008;4.530;2023-04-15T00:59:00;8.62;;;8.62;;
73132;SDS011;61320;52.008;4.530;2023-04-15T01:01:26;8.48;;;8.48;;
73132;SDS011;61320;52.008;4.530;2023-04-15T01:03:53;8.16;;;8.16;;
73132;SDS011;61320;52.008;4.530;2023-04-15T01:06:20;8.37;;;8.37;;
73132;SDS011;61320;52.008;4.530;2023-04-15T01:08:46;8.30;;;8.30;;
73132;SDS011;61320;52.008;4.530;2023-04-15T01:11:12;8.44;;;8.44;;
73132;SDS011;61320;52.008;4.530;2023-04-15T01:13:38;8.89;;;8.89;;
73132;SDS011;61320;52.008;4.530;2023-04-15T01:16:04;8.96;;;8.96;;
73132;SDS011;61320;52.008;4.530;2023-04-15T01:18:31;8.76;;;8.76;;
73132;SDS011;61320;52.008;4.530;2023-04-15T01:20:57;8.57;;;8.57;;
73132;SDS011;61320;52.008;4.530;2023-04-15T01:23:26;9.02;;;9.02;;
73132;SDS011;61320;52.008;4.530;2023-04-15T01:25:52;9.30;;;9.30;;
73132;SDS011;61320;52.008;4.530;2023-04-15T01:28:17;8.88;;;8.88;;
73132;SDS011;61320;52.008;4.530;2023-04-15T01:30:44;8.60;;;8.60;;
73132;SDS011;61320;52.008;4.530;2023-04-15T01:33:10;9.23;;;9.23;;
73132;SDS011;61320;52.008;4.530;2023-04-15T01:35:35;9.34;;;9.34;;
73132;SDS011;61320;52.008;4.530;2023-04-15T01:38:04;9.21;;;9.21;;
73132;SDS011;61320;52.008;4.530;2023-04-15T01:40:31;9.47;;;9.47;;
73132;SDS011;61320;52.008;4.530;2023-04-15T01:42:58;9.22;;;9.22;;
73132;SDS011;61320;52.008;4.530;2023-04-15T01:45:24;9.19;;;9.19;;
73132;SDS011;61320;52.008;4.530;2023-04-15T01:47:49;9.40;;;9.40;;
73132;SDS011;61320;52.008;4.530;2023-04-15T01:50:15;9.15;;;9.15;;
73132;SDS011;61320;52.008;4.530;2023-04-15T01:52:40;8.93;;;8.93;;
73132;SDS011;61320;52.008;4.530;2023-04-15T01:55:07;9.27;;;9.27;;
73132;SDS011;61320;52.008;4.530;2023-04-15T01:57:33;9.47;;;9.47;;
73132;SDS011;61320;52.008;4.530;2023-04-15T01:59:59;9.35;;;9.35;;
73132;SDS011;61320;52.008;4.530;2023-04-15T02:02:25;9.54;;;9.54;;
73132;SDS011;61320;52.008;4.530;2023-04-15T02:04:50;9.27;;;9.27;;
73132;SDS011;61320;52.008;4.530;2023-04-15T02:07:15;9.59;;;9.59;;
73132;SDS011;61320;52.008;4.530;2023-04-15T02:09:41;9.63;;;9.63;;
73132;SDS011;61320;52.008;4.530;2023-04-15T02:12:08;9.81;;;9.81;;
73132;SDS011;61320;52.008;4.530;2023-04-15T02:14:33;9.45;;;9.45;;
73132;SDS011;61320;52.008;4.530;2023-04-15T02:16:59;10.28;;;10.28;;
73132;SDS011;61320;52.008;4.530;2023-04-15T02:19:31;10.12;;;10.12;;
73132;SDS011;61320;52.008;4.530;2023-04-15T02:21:59;9.85;;;9.85;;
73132;SDS011;61320;52.008;4.530;2023-04-15T02:24:28;10.11;;;10.11;;
73132;SDS011;61320;52.008;4.530;2023-04-15T02:26:55;9.68;;;9.68;;
73132;SDS011;61320;52.008;4.530;2023-04-15T02:29:21;9.84;;;9.84;;
73132;SDS011;61320;52.008;4.530;2023-04-15T02:31:49;9.70;;;9.70;;
73132;SDS011;61320;52.008;4.530;2023-04-15T02:34:15;9.83;;;9.83;;
73132;SDS011;61320;52.008;4.530;2023-04-15T02:36:41;9.73;;;9.73;;
73132;SDS011;61320;52.008;4.530;2023-04-15T02:39:06;9.81;;;9.81;;
73132;SDS011;61320;52.008;4.530;2023-04-15T02:41:32;9.97;;;9.97;;
73132;SDS011;61320;52.008;4.530;2023-04-15T02:43:57;10.07;;;10.07;;
73132;SDS011;61320;52.008;4.530;2023-04-15T02:46:23;9.94;;;9.94;;
73132;SDS011;61320;52.008;4.530;2023-04-15T02:48:48;9.85;;;9.85;;
73132;SDS011;61320;52.008;4.530;2023-04-15T02:51:15;10.22;;;10.22;;
73132;SDS011;61320;52.008;4.530;2023-04-15T02:53:44;10.14;;;10.14;;
73132;SDS011;61320;52.008;4.530;2023-04-15T02:56:10;10.67;;;10.67;;
73132;SDS011;61320;52.008;4.530;2023-04-15T02:58:36;11.16;;;11.16;;
73132;SDS011;61320;52.008;4.530;2023-04-15T03:01:03;11.09;;;11.09;;
73132;SDS011;61320;52.008;4.530;2023-04-15T03:03:29;11.18;;;11.18;;
73132;SDS011;61320;52.008;4.530;2023-04-15T03:05:54;11.69;;;11.69;;
73132;SDS011;61320;52.008;4.530;2023-04-15T03:08:20;11.00;;;11.00;;
73132;SDS011;61320;52.008;4.530;2023-04-15T03:10:45;11.14;;;11.14;;
73132;SDS011;61320;52.008;4.530;2023-04-15T03:13:12;11.38;;;11.38;;
73132;SDS011;61320;52.008;4.530;2023-04-15T03:15:37;10.95;;;10.95;;
73132;SDS011;61320;52.008;4.530;2023-04-15T03:18:03;11.42;;;11.42;;
73132;SDS011;61320;52.008;4.530;2023-04-15T03:20:28;10.92;;;10.92;;
73132;SDS011;61320;52.008;4.530;2023-04-15T03:22:54;11.24;;;11.24;;
73132;SDS011;61320;52.008;4.530;2023-04-15T03:25:19;11.04;;;11.04;;
73132;SDS011;61320;52.008;4.530;2023-04-15T03:27:45;10.62;;;10.62;;
73132;SDS011;61320;52.008;4.530;2023-04-15T03:30:11;10.94;;;10.94;;
73132;SDS011;61320;52.008;4.530;2023-04-15T03:32:37;10.87;;;10.87;;
73132;SDS011;61320;52.008;4.530;2023-04-15T03:35:03;11.40;;;11.40;;
73132;SDS011;61320;52.008;4.530;2023-04-15T03:37:28;11.36;;;11.36;;
73132;SDS011;61320;52.008;4.530;2023-04-15T03:39:54;10.94;;;10.94;;
73132;SDS011;61320;52.008;4.530;2023-04-15T03:42:20;10.49;;;10.49;;
73132;SDS011;61320;52.008;4.530;2023-04-15T03:44:45;11.43;;;11.43;;
73132;SDS011;61320;52.008;4.530;2023-04-15T03:47:11;11.30;;;11.30;;
73132;SDS011;61320;52.008;4.530;2023-04-15T03:49:36;11.19;;;11.19;;
73132;SDS011;61320;52.008;4.530;2023-04-15T03:52:02;11.22;;;11.22;;
73132;SDS011;61320;52.008;4.530;2023-04-15T03:54:27;11.16;;;11.16;;
73132;SDS011;61320;52.008;4.530;2023-04-15T03:56:53;11.12;;;11.12;;
73132;SDS011;61320;52.008;4.530;2023-04-15T03:59:18;10.97;;;10.97;;
73132;SDS011;61320;52.008;4.530;2023-04-15T04:01:44;11.16;;;11.16;;
73132;SDS011;61320;52.008;4.530;2023-04-15T04:04:09;10.94;;;10.94;;
73132;SDS011;61320;52.008;4.530;2023-04-15T04:06:36;11.28;;;11.28;;
73132;SDS011;61320;52.008;4.530;2023-04-15T04:09:02;11.21;;;11.21;;
73132;SDS011;61320;52.008;4.530;2023-04-15T04:11:27;11.50;;;11.50;;
73132;SDS011;61320;52.008;4.530;2023-04-15T04:13:53;11.24;;;11.24;;
73132;SDS011;61320;52.008;4.530;2023-04-15T04:16:18;11.09;;;11.09;;
73132;SDS011;61320;52.008;4.530;2023-04-15T04:18:44;11.56;;;11.56;;
73132;SDS011;61320;52.008;4.530;2023-04-15T04:21:10;11.77;;;11.77;;
73132;SDS011;61320;52.008;4.530;2023-04-15T04:23:35;11.77;;;11.77;;
73132;SDS011;61320;52.008;4.530;2023-04-15T04:26:01;11.65;;;11.65;;
73132;SDS011;61320;52.008;4.530;2023-04-15T04:28:26;11.98;;;11.98;;
73132;SDS011;61320;52.008;4.530;2023-04-15T04:30:52;11.35;;;11.35;;
73132;SDS011;61320;52.008;4.530;2023-04-15T04:33:18;11.67;;;11.67;;
73132;SDS011;61320;52.008;4.530;2023-04-15T04:35:43;11.96;;;11.96;;
73132;SDS011;61320;52.008;4.530;2023-04-15T04:38:09;11.63;;;11.63;;
73132;SDS011;61320;52.008;4.530;2023-04-15T04:40:35;11.69;;;11.69;;
73132;SDS011;61320;52.008;4.530;2023-04-15T04:43:00;12.11;;;12.11;;
73132;SDS011;61320;52.008;4.530;2023-04-15T04:45:26;11.96;;;11.96;;
73132;SDS011;61320;52.008;4.530;2023-04-15T04:47:52;11.57;;;11.57;;
73132;SDS011;61320;52.008;4.530;2023-04-15T04:50:17;11.67;;;11.67;;
73132;SDS011;61320;52.008;4.530;2023-04-15T04:52:43;11.78;;;11.78;;
73132;SDS011;61320;52.008;4.530;2023-04-15T04:55:08;11.50;;;11.50;;
73132;SDS011;61320;52.008;4.530;2023-04-15T04:57:34;11.71;;;11.71;;
73132;SDS011;61320;52.008;4.530;2023-04-15T05:00:00;12.04;;;12.04;;
73132;SDS011;61320;52.008;4.530;2023-04-15T05:02:28;11.50;;;11.50;;
73132;SDS011;61320;52.008;4.530;2023-04-15T05:04:54;11.50;;;11.50;;
73132;SDS011;61320;52.008;4.530;2023-04-15T05:07:19;11.62;;;11.62;;
73132;SDS011;61320;52.008;4.530;2023-04-15T05:09:45;13.56;;;13.56;;
73132;SDS011;61320;52.008;4.530;2023-04-15T05:12:11;12.16;;;12.16;;
73132;SDS011;61320;52.008;4.530;2023-04-15T05:14:40;13.16;;;13.16;;
73132;SDS011;61320;52.008;4.530;2023-04-15T05:17:06;12.65;;;12.65;;
73132;SDS011;61320;52.008;4.530;2023-04-15T05:19:32;11.85;;;11.85;;
73132;SDS011;61320;52.008;4.530;2023-04-15T05:21:58;12.35;;;12.35;;
73132;SDS011;61320;52.008;4.530;2023-04-15T05:24:24;12.74;;;12.74;;
73132;SDS011;61320;52.008;4.530;2023-04-15T05:26:49;12.44;;;12.44;;
73132;SDS011;61320;52.008;4.530;2023-04-15T05:29:15;12.11;;;12.11;;
73132;SDS011;61320;52.008;4.530;2023-04-15T05:31:41;11.95;;;11.95;;
73132;SDS011;61320;52.008;4.530;2023-04-15T05:34:07;12.16;;;12.16;;
73132;SDS011;61320;52.008;4.530;2023-04-15T05:36:32;12.22;;;12.22;;
73132;SDS011;61320;52.008;4.530;2023-04-15T05:38:58;12.40;;;12.40;;
73132;SDS011;61320;52.008;4.530;2023-04-15T05:41:24;12.30;;;12.30;;
73132;SDS011;61320;52.008;4.530;2023-04-15T05:43:50;12.35;;;12.35;;
73132;SDS011;61320;52.008;4.530;2023-04-15T05:46:15;12.52;;;12.52;;
73132;SDS011;61320;52.008;4.530;2023-04-15T05:48:41;11.83;;;11.83;;
73132;SDS011;61320;52.008;4.530;2023-04-15T05:51:06;12.77;;;12.77;;
73132;SDS011;61320;52.008;4.530;2023-04-15T05:53:32;12.68;;;12.68;;
73132;SDS011;61320;52.008;4.530;2023-04-15T05:55:57;12.48;;;12.48;;
73132;SDS011;61320;52.008;4.530;2023-04-15T05:58:23;12.07;;;12.07;;
73132;SDS011;61320;52.008;4.530;2023-04-15T06:00:48;12.52;;;12.52;;
73132;SDS011;61320;52.008;4.530;2023-04-15T06:03:14;12.66;;;12.66;;
73132;SDS011;61320;52.008;4.530;2023-04-15T06:05:40;12.36;;;12.36;;
73132;SDS011;61320;52.008;4.530;2023-04-15T06:08:06;12.88;;;12.88;;
73132;SDS011;61320;52.008;4.530;2023-04-15T06:10:33;12.98;;;12.98;;
73132;SDS011;61320;52.008;4.530;2023-04-15T06:13:01;12.82;;;12.82;;
73132;SDS011;61320;52.008;4.530;2023-04-15T06:15:28;12.37;;;12.37;;
73132;SDS011;61320;52.008;4.530;2023-04-15T06:17:53;12.62;;;12.62;;
73132;SDS011;61320;52.008;4.530;2023-04-15T06:20:19;12.76;;;12.76;;
73132;SDS011;61320;52.008;4.530;2023-04-15T06:22:44;12.37;;;12.37;;
73132;SDS011;61320;52.008;4.530;2023-04-15T06:25:10;12.79;;;12.79;;
73132;SDS011;61320;52.008;4.530;2023-04-15T06:27:36;12.64;;;12.64;;
73132;SDS011;61320;52.008;4.530;2023-04-15T06:30:02;12.82;;;12.82;;
73132;SDS011;61320;52.008;4.530;2023-04-15T06:32:28;13.00;;;13.00;;
73132;SDS011;61320;52.008;4.530;2023-04-15T06:34:53;12.87;;;12.87;;
73132;SDS011;61320;52.008;4.530;2023-04-15T06:37:19;12.61;;;12.61;;
73132;SDS011;61320;52.008;4.530;2023-04-15T06:39:44;12.57;;;12.57;;
73132;SDS011;61320;52.008;4.530;2023-04-15T06:42:10;12.70;;;12.70;;
73132;SDS011;61320;52.008;4.530;2023-04-15T06:44:36;13.01;;;13.01;;
73132;SDS011;61320;52.008;4.530;2023-04-15T06:47:02;12.59;;;12.59;;
73132;SDS011;61320;52.008;4.530;2023-04-15T06:49:27;13.08;;;13.08;;
73132;SDS011;61320;52.008;4.530;2023-04-15T06:51:53;12.77;;;12.77;;
73132;SDS011;61320;52.008;4.530;2023-04-15T06:54:18;12.94;;;12.94;;
73132;SDS011;61320;52.008;4.530;2023-04-15T06:56:44;13.41;;;13.41;;
73132;SDS011;61320;52.008;4.530;2023-04-15T06:59:09;13.53;;;13.53;;
73132;SDS011;61320;52.008;4.530;2023-04-15T07:01:35;13.14;;;13.14;;
73132;SDS011;61320;52.008;4.530;2023-04-15T07:04:00;13.21;;;13.21;;
73132;SDS011;61320;52.008;4.530;2023-04-15T07:06:26;12.83;;;12.83;;
73132;SDS011;61320;52.008;4.530;2023-04-15T07:08:52;13.13;;;13.13;;
73132;SDS011;61320;52.008;4.530;2023-04-15T07:11:18;13.02;;;13.02;;
73132;SDS011;61320;52.008;4.530;2023-04-15T07:13:45;12.57;;;12.57;;
73132;SDS011;61320;52.008;4.530;2023-04-15T07:16:10;12.18;;;12.18;;
73132;SDS011;61320;52.008;4.530;2023-04-15T07:18:36;12.06;;;12.06;;
73132;SDS011;61320;52.008;4.530;2023-04-15T07:21:01;11.97;;;11.97;;
73132;SDS011;61320;52.008;4.530;2023-04-15T07:23:27;11.22;;;11.22;;
73132;SDS011;61320;52.008;4.530;2023-04-15T07:25:53;11.14;;;11.14;;
73132;SDS011;61320;52.008;4.530;2023-04-15T07:28:19;10.84;;;10.84;;
73132;SDS011;61320;52.008;4.530;2023-04-15T07:30:44;10.46;;;10.46;;
73132;SDS011;61320;52.008;4.530;2023-04-15T07:33:10;10.62;;;10.62;;
73132;SDS011;61320;52.008;4.530;2023-04-15T07:35:36;10.50;;;10.50;;
73132;SDS011;61320;52.008;4.530;2023-04-15T07:38:01;10.56;;;10.56;;
73132;SDS011;61320;52.008;4.530;2023-04-15T07:40:27;10.68;;;10.68;;
73132;SDS011;61320;52.008;4.530;2023-04-15T07:42:53;10.69;;;10.69;;
73132;SDS011;61320;52.008;4.530;2023-04-15T07:45:21;10.80;;;10.80;;
73132;SDS011;61320;52.008;4.530;2023-04-15T07:47:46;11.05;;;11.05;;
73132;SDS011;61320;52.008;4.530;2023-04-15T07:50:12;11.07;;;11.07;;
73132;SDS011;61320;52.008;4.530;2023-04-15T07:52:38;11.29;;;11.29;;
73132;SDS011;61320;52.008;4.530;2023-04-15T07:55:04;11.66;;;11.66;;
73132;SDS011;61320;52.008;4.530;2023-04-15T07:57:32;11.57;;;11.57;;
73132;SDS011;61320;52.008;4.530;2023-04-15T07:59:59;12.36;;;12.36;;
73132;SDS011;61320;52.008;4.530;2023-04-15T08:02:25;12.11;;;12.11;;
73132;SDS011;61320;52.008;4.530;2023-04-15T08:04:50;11.55;;;11.55;;
73132;SDS011;61320;52.008;4.530;2023-04-15T08:07:17;11.68;;;11.68;;
73132;SDS011;61320;52.008;4.530;2023-04-15T08:09:42;12.17;;;12.17;;
73132;SDS011;61320;52.008;4.530;2023-04-15T08:12:08;11.78;;;11.78;;
73132;SDS011;61320;52.008;4.530;2023-04-15T08:14:36;11.76;;;11.76;;
73132;SDS011;61320;52.008;4.530;2023-04-15T08:17:02;11.55;;;11.55;;
73132;SDS011;61320;52.008;4.530;2023-04-15T08:19:28;11.43;;;11.43;;
73132;SDS011;61320;52.008;4.530;2023-04-15T08:21:54;11.87;;;11.87;;
73132;SDS011;61320;52.008;4.530;2023-04-15T08:24:20;11.52;;;11.52;;
73132;SDS011;61320;52.008;4.530;2023-04-15T08:26:46;10.97;;;10.97;;
73132;SDS011;61320;52.008;4.530;2023-04-15T08:29:11;11.51;;;11.51;;
73132;SDS011;61320;52.008;4.530;2023-04-15T08:31:37;11.54;;;11.54;;
73132;SDS011;61320;52.008;4.530;2023-04-15T08:34:02;11.64;;;11.64;;
73132;SDS011;61320;52.008;4.530;2023-04-15T08:36:29;11.79;;;11.79;;
73132;SDS011;61320;52.008;4.530;2023-04-15T08:38:54;11.61;;;11.61;;
73132;SDS011;61320;52.008;4.530;2023-04-15T08:41:21;12.08;;;12.08;;
73132;SDS011;61320;52.008;4.530;2023-04-15T08:43:51;12.26;;;12.26;;
73132;SDS011;61320;52.008;4.530;2023-04-15T08:46:19;12.49;;;12.49;;
73132;SDS011;61320;52.008;4.530;2023-04-15T08:48:46;12.71;;;12.62;;
73132;SDS011;61320;52.008;4.530;2023-04-15T08:51:13;12.50;;;12.34;;
73132;SDS011;61320;52.008;4.530;2023-04-15T08:53:41;11.75;;;11.74;;
73132;SDS011;61320;52.008;4.530;2023-04-15T08:56:08;12.32;;;12.32;;
73132;SDS011;61320;52.008;4.530;2023-04-15T08:58:35;11.93;;;11.92;;
73132;SDS011;61320;52.008;4.530;2023-04-15T09:01:01;11.25;;;11.25;;
73132;SDS011;61320;52.008;4.530;2023-04-15T09:03:27;10.60;;;10.60;;
73132;SDS011;61320;52.008;4.530;2023-04-15T09:05:53;10.37;;;10.37;;
73132;SDS011;61320;52.008;4.530;2023-04-15T09:08:18;10.23;;;10.23;;
73132;SDS011;61320;52.008;4.530;2023-04-15T09:10:44;10.23;;;10.23;;
73132;SDS011;61320;52.008;4.530;2023-04-15T09:13:10;10.24;;;10.24;;
73132;SDS011;61320;52.008;4.530;2023-04-15T09:15:37;10.14;;;10.14;;
73132;SDS011;61320;52.008;4.530;2023-04-15T09:18:03;9.95;;;9.95;;
73132;SDS011;61320;52.008;4.530;2023-04-15T09:20:28;9.85;;;9.82;;
73132;SDS011;61320;52.008;4.530;2023-04-15T09:22:54;9.57;;;9.57;;
73132;SDS011;61320;52.008;4.530;2023-04-15T09:27:49;9.20;;;9.20;;
73132;SDS011;61320;52.008;4.530;2023-04-15T09:30:18;8.79;;;8.79;;
73132;SDS011;61320;52.008;4.530;2023-04-15T09:32:50;7.88;;;7.88;;
73132;SDS011;61320;52.008;4.530;2023-04-15T09:35:18;7.12;;;7.12;;
73132;SDS011;61320;52.008;4.530;2023-04-15T09:37:45;6.38;;;6.37;;
73132;SDS011;61320;52.008;4.530;2023-04-15T09:40:10;6.03;;;6.02;;
73132;SDS011;61320;52.008;4.530;2023-04-15T09:42:39;5.18;;;5.18;;
73132;SDS011;61320;52.008;4.530;2023-04-15T09:45:19;5.02;;;5.01;;
73132;SDS011;61320;52.008;4.530;2023-04-15T09:47:45;4.00;;;3.99;;
73132;SDS011;61320;52.008;4.530;2023-04-15T09:50:10;3.52;;;3.52;;
73132;SDS011;61320;52.008;4.530;2023-04-15T09:52:40;3.47;;;3.47;;
73132;SDS011;61320;52.008;4.530;2023-04-15T09:55:07;4.21;;;4.21;;
73132;SDS011;61320;52.008;4.530;2023-04-15T09:57:36;4.60;;;4.60;;
73132;SDS011;61320;52.008;4.530;2023-04-15T10:00:03;3.97;;;3.97;;
73132;SDS011;61320;52.008;4.530;2023-04-15T10:02:29;3.86;;;3.86;;
73132;SDS011;61320;52.008;4.530;2023-04-15T10:04:56;4.25;;;4.25;;
73132;SDS011;61320;52.008;4.530;2023-04-15T10:07:22;3.79;;;3.79;;
73132;SDS011;61320;52.008;4.530;2023-04-15T10:09:49;3.90;;;3.90;;
73132;SDS011;61320;52.008;4.530;2023-04-15T10:12:16;3.76;;;3.76;;
73132;SDS011;61320;52.008;4.530;2023-04-15T10:14:43;3.02;;;3.02;;
73132;SDS011;61320;52.008;4.530;2023-04-15T10:17:16;3.10;;;3.10;;
73132;SDS011;61320;52.008;4.530;2023-04-15T10:19:42;3.22;;;3.22;;
73132;SDS011;61320;52.008;4.530;2023-04-15T10:22:09;3.44;;;3.44;;
73132;SDS011;61320;52.008;4.530;2023-04-15T10:24:34;3.71;;;3.71;;
73132;SDS011;61320;52.008;4.530;2023-04-15T10:27:02;3.83;;;3.83;;
73132;SDS011;61320;52.008;4.530;2023-04-15T10:29:29;3.67;;;3.67;;
73132;SDS011;61320;52.008;4.530;2023-04-15T10:31:55;3.55;;;3.55;;
73132;SDS011;61320;52.008;4.530;2023-04-15T10:34:23;3.67;;;3.67;;
73132;SDS011;61320;52.008;4.530;2023-04-15T10:36:50;3.73;;;3.73;;
73132;SDS011;61320;52.008;4.530;2023-04-15T10:44:37;3.69;;;3.69;;
73132;SDS011;61320;52.008;4.530;2023-04-15T10:47:16;2.80;;;2.80;;
73132;SDS011;61320;52.008;4.530;2023-04-15T10:52:10;3.06;;;3.06;;
73132;SDS011;61320;52.008;4.530;2023-04-15T10:54:36;3.05;;;3.05;;
73132;SDS011;61320;52.008;4.530;2023-04-15T10:59:29;3.68;;;3.68;;
73132;SDS011;61320;52.008;4.530;2023-04-15T11:02:01;3.76;;;3.76;;
73132;SDS011;61320;52.008;4.530;2023-04-15T11:07:37;3.95;;;3.95;;
73132;SDS011;61320;52.008;4.530;2023-04-15T11:12:41;3.73;;;3.73;;
73132;SDS011;61320;52.008;4.530;2023-04-15T11:20:33;3.82;;;3.82;;
73132;SDS011;61320;52.008;4.530;2023-04-15T11:23:00;3.94;;;3.94;;
73132;SDS011;61320;52.008;4.530;2023-04-15T11:25:26;4.18;;;4.18;;
73132;SDS011;61320;52.008;4.530;2023-04-15T11:27:53;3.73;;;3.73;;
73132;SDS011;61320;52.008;4.530;2023-04-15T11:30:20;3.80;;;3.80;;
73132;SDS011;61320;52.008;4.530;2023-04-15T11:32:49;3.94;;;3.94;;
73132;SDS011;61320;52.008;4.530;2023-04-15T11:35:17;3.65;;;3.65;;
73132;SDS011;61320;52.008;4.530;2023-04-15T11:37:43;3.86;;;3.86;;
73132;SDS011;61320;52.008;4.530;2023-04-15T11:40:10;4.00;;;4.00;;
73132;SDS011;61320;52.008;4.530;2023-04-15T11:42:35;3.86;;;3.86;;
73132;SDS011;61320;52.008;4.530;2023-04-15T11:47:34;3.99;;;3.99;;
73132;SDS011;61320;52.008;4.530;2023-04-15T11:50:19;4.13;;;4.13;;
73132;SDS011;61320;52.008;4.530;2023-04-15T11:52:53;4.10;;;4.10;;
73132;SDS011;61320;52.008;4.530;2023-04-15T11:55:23;4.26;;;4.26;;
73132;SDS011;61320;52.008;4.530;2023-04-15T12:00:34;4.29;;;4.29;;
73132;SDS011;61320;52.008;4.530;2023-04-15T12:03:10;4.43;;;4.43;;
73132;SDS011;61320;52.008;4.530;2023-04-15T12:05:36;4.43;;;4.43;;
73132;SDS011;61320;52.008;4.530;2023-04-15T12:11:14;4.28;;;4.28;;
73132;SDS011;61320;52.008;4.530;2023-04-15T12:13:54;4.37;;;4.37;;
73132;SDS011;61320;52.008;4.530;2023-04-15T12:16:22;4.03;;;4.03;;
73132;SDS011;61320;52.008;4.530;2023-04-15T12:18:52;3.96;;;3.96;;
73132;SDS011;61320;52.008;4.530;2023-04-15T12:21:23;4.39;;;4.39;;
73132;SDS011;61320;52.008;4.530;2023-04-15T12:23:54;4.21;;;4.21;;
73132;SDS011;61320;52.008;4.530;2023-04-15T12:27:04;3.90;;;3.90;;
73132;SDS011;61320;52.008;4.530;2023-04-15T12:29:12;3.55;;;3.55;;
73132;SDS011;61320;52.008;4.530;2023-04-15T12:37:04;3.49;;;3.49;;
73132;SDS011;61320;52.008;4.530;2023-04-15T12:39:34;3.33;;;3.33;;
73132;SDS011;61320;52.008;4.530;2023-04-15T12:42:00;3.24;;;3.24;;
73132;SDS011;61320;52.008;4.530;2023-04-15T12:44:26;2.92;;;2.92;;
73132;SDS011;61320;52.008;4.530;2023-04-15T12:46:53;2.93;;;2.93;;
73132;SDS011;61320;52.008;4.530;2023-04-15T12:49:21;2.99;;;2.99;;
73132;SDS011;61320;52.008;4.530;2023-04-15T12:51:49;2.73;;;2.73;;
73132;SDS011;61320;52.008;4.530;2023-04-15T12:54:20;3.06;;;3.06;;
73132;SDS011;61320;52.008;4.530;2023-04-15T12:56:46;2.82;;;2.82;;
73132;SDS011;61320;52.008;4.530;2023-04-15T12:59:14;2.33;;;2.33;;
73132;SDS011;61320;52.008;4.530;2023-04-15T13:01:41;2.67;;;2.67;;
73132;SDS011;61320;52.008;4.530;2023-04-15T13:04:07;2.87;;;2.87;;
73132;SDS011;61320;52.008;4.530;2023-04-15T13:06:32;3.03;;;3.03;;
73132;SDS011;61320;52.008;4.530;2023-04-15T13:08:59;3.85;;;3.85;;
73132;SDS011;61320;52.008;4.530;2023-04-15T13:11:26;4.42;;;4.42;;
73132;SDS011;61320;52.008;4.530;2023-04-15T13:13:53;4.19;;;4.19;;
73132;SDS011;61320;52.008;4.530;2023-04-15T13:16:19;3.96;;;3.96;;
73132;SDS011;61320;52.008;4.530;2023-04-15T13:18:46;3.54;;;3.54;;
73132;SDS011;61320;52.008;4.530;2023-04-15T13:21:12;3.26;;;3.26;;
73132;SDS011;61320;52.008;4.530;2023-04-15T13:23:39;3.15;;;3.15;;
73132;SDS011;61320;52.008;4.530;2023-04-15T13:26:06;3.80;;;3.80;;
73132;SDS011;61320;52.008;4.530;2023-04-15T13:28:32;3.80;;;3.80;;
73132;SDS011;61320;52.008;4.530;2023-04-15T13:30:58;3.44;;;3.44;;
73132;SDS011;61320;52.008;4.530;2023-04-15T13:33:24;3.82;;;3.82;;
73132;SDS011;61320;52.008;4.530;2023-04-15T13:35:50;3.60;;;3.60;;
73132;SDS011;61320;52.008;4.530;2023-04-15T13:38:16;3.48;;;3.48;;
73132;SDS011;61320;52.008;4.530;2023-04-15T13:40:41;3.33;;;3.33;;
73132;SDS011;61320;52.008;4.530;2023-04-15T13:43:06;3.47;;;3.47;;
73132;SDS011;61320;52.008;4.530;2023-04-15T13:45:32;3.16;;;3.16;;
73132;SDS011;61320;52.008;4.530;2023-04-15T13:47:58;3.36;;;3.36;;
73132;SDS011;61320;52.008;4.530;2023-04-15T13:50:23;3.41;;;3.41;;
73132;SDS011;61320;52.008;4.530;2023-04-15T13:52:49;3.15;;;3.15;;
73132;SDS011;61320;52.008;4.530;2023-04-15T13:55:14;3.47;;;3.47;;
73132;SDS011;61320;52.008;4.530;2023-04-15T13:57:40;3.44;;;3.44;;
73132;SDS011;61320;52.008;4.530;2023-04-15T14:00:05;3.34;;;3.34;;
73132;SDS011;61320;52.008;4.530;2023-04-15T14:02:31;3.39;;;3.39;;
73132;SDS011;61320;52.008;4.530;2023-04-15T14:04:57;4.00;;;4.00;;
73132;SDS011;61320;52.008;4.530;2023-04-15T14:07:22;4.04;;;4.03;;
73132;SDS011;61320;52.008;4.530;2023-04-15T14:09:48;3.82;;;3.82;;
73132;SDS011;61320;52.008;4.530;2023-04-15T14:12:14;3.71;;;3.71;;
73132;SDS011;61320;52.008;4.530;2023-04-15T14:14:40;3.69;;;3.69;;
73132;SDS011;61320;52.008;4.530;2023-04-15T14:17:05;3.64;;;3.64;;
73132;SDS011;61320;52.008;4.530;2023-04-15T14:19:31;3.87;;;3.87;;
73132;SDS011;61320;52.008;4.530;2023-04-15T14:21:57;3.61;;;3.61;;
73132;SDS011;61320;52.008;4.530;2023-04-15T14:24:23;3.65;;;3.65;;
73132;SDS011;61320;52.008;4.530;2023-04-15T14:26:49;3.75;;;3.75;;
73132;SDS011;61320;52.008;4.530;2023-04-15T14:29:14;3.67;;;3.67;;
73132;SDS011;61320;52.008;4.530;2023-04-15T14:31:40;3.65;;;3.65;;
73132;SDS011;61320;52.008;4.530;2023-04-15T14:34:06;3.70;;;3.70;;
73132;SDS011;61320;52.008;4.530;2023-04-15T14:36:32;3.57;;;3.57;;
73132;SDS011;61320;52.008;4.530;2023-04-15T14:38:57;3.59;;;3.59;;
73132;SDS011;61320;52.008;4.530;2023-04-15T14:41:23;3.55;;;3.55;;
73132;SDS011;61320;52.008;4.530;2023-04-15T14:43:48;3.68;;;3.68;;
73132;SDS011;61320;52.008;4.530;2023-04-15T14:46:14;4.05;;;4.05;;
73132;SDS011;61320;52.008;4.530;2023-04-15T14:48:39;4.31;;;4.31;;
73132;SDS011;61320;52.008;4.530;2023-04-15T14:51:05;4.05;;;4.05;;
73132;SDS011;61320;52.008;4.530;2023-04-15T14:53:31;4.32;;;4.32;;
73132;SDS011;61320;52.008;4.530;2023-04-15T14:55:56;4.29;;;4.29;;
73132;SDS011;61320;52.008;4.530;2023-04-15T14:58:22;4.25;;;4.25;;
73132;SDS011;61320;52.008;4.530;2023-04-15T15:00:47;4.31;;;4.31;;
73132;SDS011;61320;52.008;4.530;2023-04-15T15:03:13;4.26;;;4.26;;
73132;SDS011;61320;52.008;4.530;2023-04-15T15:05:43;4.51;;;4.51;;
73132;SDS011;61320;52.008;4.530;2023-04-15T15:08:10;4.18;;;4.18;;